SUR4070 SPRU-SPJC
Flight info
| Callsign | SUR4070 |
|---|---|
| Flight time | 0h 56m |
| Altitude | 16000 |
| Route | TELE2F ISREN UM542 VUGAL VUGAL1 |
| Aircraft | DH8D/L-S/1200 |
Departure
| Time | 2026-05-05 17:11 |
|---|---|
| Airport | Capitán FAP Carlos Martínez de Pinillos International Airport (SPRU) |
Arrival
| Time | 2026-05-05 18:07 |
|---|---|
| Airport | Jorge Chávez International Airport (SPJC) |
| Time | Latitude | Longitude | Altitude | Speed | Heading |
|---|---|---|---|---|---|
| 2026-05-05 17:05 | -8.08474 | -79.10830 | 106 ft | 0 kts | 198° |
| 2026-05-05 17:05 | -8.08487 | -79.10841 | 106 ft | 4 kts | 246° |
| 2026-05-05 17:06 | -8.08487 | -79.10872 | 105 ft | 0 kts | 278° |
| 2026-05-05 17:06 | -8.08473 | -79.10922 | 104 ft | 13 kts | 299° |
| 2026-05-05 17:07 | -8.08375 | -79.10931 | 106 ft | 17 kts | 15° |
| 2026-05-05 17:07 | -8.08248 | -79.10895 | 109 ft | 18 kts | 16° |
| 2026-05-05 17:07 | -8.08125 | -79.10857 | 112 ft | 16 kts | 17° |
| 2026-05-05 17:07 | -8.08025 | -79.10824 | 115 ft | 13 kts | 19° |
| 2026-05-05 17:08 | -8.07945 | -79.10795 | 118 ft | 11 kts | 20° |
| 2026-05-05 17:08 | -8.07835 | -79.10761 | 122 ft | 16 kts | 17° |
| 2026-05-05 17:08 | -8.07710 | -79.10721 | 123 ft | 28 kts | 18° |
| 2026-05-05 17:08 | -8.07522 | -79.10665 | 129 ft | 27 kts | 17° |
| 2026-05-05 17:09 | -8.07323 | -79.10600 | 135 ft | 26 kts | 19° |
| 2026-05-05 17:09 | -8.07169 | -79.10551 | 140 ft | 20 kts | 19° |
| 2026-05-05 17:09 | -8.07055 | -79.10493 | 145 ft | 18 kts | 44° |
| 2026-05-05 17:09 | -8.06956 | -79.10424 | 148 ft | 16 kts | 360° |
| 2026-05-05 17:10 | -8.06933 | -79.10477 | 147 ft | 0 kts | 198° |
| 2026-05-05 17:10 | -8.07024 | -79.10504 | 145 ft | 49 kts | 195° |
| 2026-05-05 17:10 | -8.07678 | -79.10691 | 136 ft | 152 kts | 194° |
| 2026-05-05 17:11 | -8.08879 | -79.11146 | 662 ft | 202 kts | 199° |
| 2026-05-05 17:11 | -8.10315 | -79.11674 | 1103 ft | 234 kts | 198° |
| 2026-05-05 17:11 | -8.11927 | -79.11917 | 1501 ft | 237 kts | 171° |
| 2026-05-05 17:11 | -8.13380 | -79.11223 | 1922 ft | 236 kts | 145° |
| 2026-05-05 17:12 | -8.14727 | -79.10244 | 2343 ft | 237 kts | 144° |
| 2026-05-05 17:12 | -8.16075 | -79.09280 | 2746 ft | 239 kts | 144° |
| 2026-05-05 17:12 | -8.17445 | -79.08321 | 3155 ft | 240 kts | 145° |
| 2026-05-05 17:12 | -8.18843 | -79.07361 | 3561 ft | 243 kts | 145° |
| 2026-05-05 17:13 | -8.20229 | -79.06422 | 3953 ft | 243 kts | 146° |
| 2026-05-05 17:13 | -8.21656 | -79.05465 | 4357 ft | 244 kts | 146° |
| 2026-05-05 17:13 | -8.23077 | -79.04520 | 4760 ft | 245 kts | 146° |
| 2026-05-05 17:13 | -8.24495 | -79.03590 | 5151 ft | 246 kts | 147° |
| 2026-05-05 17:14 | -8.25980 | -79.02713 | 5552 ft | 246 kts | 149° |
| 2026-05-05 17:14 | -8.27482 | -79.01856 | 5942 ft | 245 kts | 149° |
| 2026-05-05 17:14 | -8.28948 | -79.01016 | 6355 ft | 244 kts | 149° |
| 2026-05-05 17:14 | -8.30431 | -79.00166 | 6759 ft | 244 kts | 149° |
| 2026-05-05 17:15 | -8.31903 | -78.99322 | 7151 ft | 245 kts | 149° |
| 2026-05-05 17:15 | -8.33387 | -78.98472 | 7562 ft | 243 kts | 149° |
| 2026-05-05 17:15 | -8.34851 | -78.97631 | 7967 ft | 243 kts | 149° |
| 2026-05-05 17:15 | -8.36322 | -78.96786 | 8364 ft | 244 kts | 149° |
| 2026-05-05 17:16 | -8.37813 | -78.95930 | 8742 ft | 244 kts | 149° |
| 2026-05-05 17:16 | -8.39278 | -78.95087 | 9140 ft | 244 kts | 149° |
| 2026-05-05 17:16 | -8.40753 | -78.94239 | 9504 ft | 243 kts | 148° |
| 2026-05-05 17:16 | -8.42238 | -78.93385 | 9952 ft | 243 kts | 148° |
| 2026-05-05 17:17 | -8.43703 | -78.92543 | 10355 ft | 244 kts | 148° |
| 2026-05-05 17:17 | -8.45178 | -78.91694 | 10716 ft | 245 kts | 148° |
| 2026-05-05 17:17 | -8.46675 | -78.90833 | 11135 ft | 246 kts | 148° |
| 2026-05-05 17:17 | -8.48167 | -78.89974 | 11572 ft | 247 kts | 148° |
| 2026-05-05 17:18 | -8.49676 | -78.89107 | 11944 ft | 252 kts | 149° |
| 2026-05-05 17:18 | -8.51229 | -78.88217 | 12361 ft | 260 kts | 148° |
| 2026-05-05 17:18 | -8.52819 | -78.87305 | 12729 ft | 266 kts | 148° |
| 2026-05-05 17:18 | -8.54448 | -78.86369 | 13095 ft | 270 kts | 148° |
| 2026-05-05 17:19 | -8.56102 | -78.85419 | 13498 ft | 276 kts | 148° |
| 2026-05-05 17:19 | -8.57766 | -78.84461 | 13859 ft | 281 kts | 148° |
| 2026-05-05 17:19 | -8.59477 | -78.83476 | 14315 ft | 286 kts | 148° |
| 2026-05-05 17:19 | -8.61228 | -78.82469 | 14734 ft | 290 kts | 148° |
| 2026-05-05 17:20 | -8.62975 | -78.81464 | 15116 ft | 294 kts | 148° |
| 2026-05-05 17:20 | -8.64792 | -78.80418 | 15565 ft | 297 kts | 148° |
| 2026-05-05 17:20 | -8.66597 | -78.79379 | 15839 ft | 305 kts | 148° |
| 2026-05-05 17:20 | -8.68492 | -78.78284 | 15915 ft | 318 kts | 148° |
| 2026-05-05 17:21 | -8.70370 | -78.77203 | 16027 ft | 328 kts | 148° |
| 2026-05-05 17:21 | -8.72395 | -78.76035 | 16012 ft | 340 kts | 148° |
| 2026-05-05 17:21 | -8.74498 | -78.74822 | 15977 ft | 348 kts | 148° |
| 2026-05-05 17:22 | -8.78786 | -78.72351 | 16006 ft | 359 kts | 149° |
| 2026-05-05 17:22 | -8.80964 | -78.71098 | 15994 ft | 357 kts | 148° |
| 2026-05-05 17:22 | -8.83104 | -78.69871 | 15961 ft | 356 kts | 149° |
| 2026-05-05 17:22 | -8.85294 | -78.68649 | 15991 ft | 354 kts | 149° |
| 2026-05-05 17:23 | -8.87468 | -78.67443 | 15978 ft | 355 kts | 149° |
| 2026-05-05 17:23 | -8.89616 | -78.66249 | 15976 ft | 354 kts | 149° |
| 2026-05-05 17:23 | -8.91770 | -78.65050 | 16019 ft | 354 kts | 149° |
| 2026-05-05 17:23 | -8.93960 | -78.63832 | 15964 ft | 356 kts | 149° |
| 2026-05-05 17:24 | -8.96134 | -78.62622 | 15973 ft | 355 kts | 149° |
| 2026-05-05 17:24 | -8.98301 | -78.61416 | 16023 ft | 356 kts | 149° |
| 2026-05-05 17:24 | -9.00460 | -78.60213 | 16017 ft | 355 kts | 149° |
| 2026-05-05 17:24 | -9.02627 | -78.59004 | 16001 ft | 356 kts | 149° |
| 2026-05-05 17:25 | -9.04809 | -78.57787 | 15988 ft | 357 kts | 150° |
| 2026-05-05 17:25 | -9.06259 | -78.56978 | 16001 ft | 358 kts | 150° |
| 2026-05-05 17:25 | -9.09165 | -78.55356 | 15976 ft | 358 kts | 149° |
| 2026-05-05 17:25 | -9.11373 | -78.54123 | 15987 ft | 357 kts | 149° |
| 2026-05-05 17:26 | -9.13530 | -78.52920 | 15981 ft | 357 kts | 150° |
| 2026-05-05 17:26 | -9.15739 | -78.51701 | 15964 ft | 356 kts | 151° |
| 2026-05-05 17:26 | -9.17944 | -78.50611 | 15974 ft | 355 kts | 153° |
| 2026-05-05 17:26 | -9.20199 | -78.49533 | 15973 ft | 356 kts | 153° |
| 2026-05-05 17:27 | -9.22447 | -78.48456 | 15969 ft | 356 kts | 153° |
| 2026-05-05 17:27 | -9.24665 | -78.47389 | 15939 ft | 355 kts | 153° |
| 2026-05-05 17:27 | -9.26902 | -78.46311 | 15945 ft | 353 kts | 153° |
| 2026-05-05 17:27 | -9.29140 | -78.45229 | 15971 ft | 353 kts | 153° |
| 2026-05-05 17:28 | -9.31342 | -78.44163 | 15947 ft | 353 kts | 153° |
| 2026-05-05 17:28 | -9.33585 | -78.43076 | 15987 ft | 353 kts | 153° |
| 2026-05-05 17:28 | -9.35796 | -78.42004 | 15972 ft | 353 kts | 153° |
| 2026-05-05 17:28 | -9.38010 | -78.40929 | 15972 ft | 355 kts | 153° |
| 2026-05-05 17:29 | -9.40243 | -78.39844 | 15941 ft | 354 kts | 153° |
| 2026-05-05 17:29 | -9.42476 | -78.38760 | 15960 ft | 351 kts | 153° |
| 2026-05-05 17:29 | -9.44676 | -78.37690 | 15962 ft | 352 kts | 153° |
| 2026-05-05 17:29 | -9.46891 | -78.36613 | 15983 ft | 355 kts | 153° |
| 2026-05-05 17:30 | -9.49117 | -78.35529 | 15988 ft | 355 kts | 152° |
| 2026-05-05 17:30 | -9.51363 | -78.34436 | 15943 ft | 356 kts | 152° |
| 2026-05-05 17:30 | -9.53596 | -78.33350 | 15977 ft | 355 kts | 152° |
| 2026-05-05 17:30 | -9.55828 | -78.32263 | 15972 ft | 356 kts | 152° |
| 2026-05-05 17:31 | -9.58070 | -78.31171 | 15976 ft | 355 kts | 152° |
| 2026-05-05 17:31 | -9.60299 | -78.30087 | 16016 ft | 356 kts | 152° |
| 2026-05-05 17:31 | -9.62536 | -78.28996 | 15956 ft | 357 kts | 152° |
| 2026-05-05 17:31 | -9.64788 | -78.27901 | 15963 ft | 355 kts | 152° |
| 2026-05-05 17:32 | -9.67016 | -78.26816 | 15994 ft | 355 kts | 152° |
| 2026-05-05 17:32 | -9.69244 | -78.25730 | 15978 ft | 356 kts | 152° |
| 2026-05-05 17:32 | -9.71486 | -78.24637 | 15957 ft | 357 kts | 152° |
| 2026-05-05 17:32 | -9.73736 | -78.23541 | 15952 ft | 357 kts | 152° |
| 2026-05-05 17:33 | -9.75986 | -78.22444 | 15976 ft | 356 kts | 152° |
| 2026-05-05 17:33 | -9.78223 | -78.21354 | 15981 ft | 356 kts | 152° |
| 2026-05-05 17:33 | -9.80459 | -78.20264 | 15977 ft | 356 kts | 152° |
| 2026-05-05 17:33 | -9.82701 | -78.19170 | 15997 ft | 356 kts | 152° |
| 2026-05-05 17:34 | -9.84929 | -78.18082 | 15975 ft | 355 kts | 152° |
| 2026-05-05 17:34 | -9.87144 | -78.17003 | 15992 ft | 356 kts | 152° |
| 2026-05-05 17:34 | -9.89389 | -78.15907 | 15961 ft | 356 kts | 152° |
| 2026-05-05 17:34 | -9.91647 | -78.14805 | 15998 ft | 356 kts | 152° |
| 2026-05-05 17:35 | -9.93879 | -78.13715 | 15934 ft | 356 kts | 152° |
| 2026-05-05 17:35 | -9.96098 | -78.12632 | 15939 ft | 356 kts | 152° |
| 2026-05-05 17:35 | -9.98349 | -78.11533 | 15940 ft | 356 kts | 152° |
| 2026-05-05 17:35 | -10.00601 | -78.10433 | 15940 ft | 356 kts | 152° |
| 2026-05-05 17:36 | -10.02819 | -78.09351 | 15967 ft | 356 kts | 152° |
| 2026-05-05 17:36 | -10.05074 | -78.08249 | 15956 ft | 357 kts | 152° |
| 2026-05-05 17:36 | -10.07298 | -78.07162 | 15962 ft | 357 kts | 152° |
| 2026-05-05 17:36 | -10.09551 | -78.06061 | 15856 ft | 357 kts | 152° |
| 2026-05-05 17:37 | -10.11807 | -78.04951 | 15663 ft | 356 kts | 152° |
| 2026-05-05 17:37 | -10.14030 | -78.03860 | 15434 ft | 355 kts | 152° |
| 2026-05-05 17:37 | -10.16253 | -78.02770 | 15171 ft | 352 kts | 152° |
| 2026-05-05 17:37 | -10.18466 | -78.01689 | 14950 ft | 345 kts | 152° |
| 2026-05-05 17:38 | -10.20599 | -78.00647 | 14751 ft | 340 kts | 152° |
| 2026-05-05 17:38 | -10.22722 | -77.99611 | 14607 ft | 336 kts | 152° |
| 2026-05-05 17:38 | -10.24818 | -77.98589 | 14393 ft | 333 kts | 152° |
| 2026-05-05 17:38 | -10.26919 | -77.97563 | 14166 ft | 331 kts | 153° |
| 2026-05-05 17:39 | -10.28976 | -77.96558 | 13956 ft | 329 kts | 153° |
| 2026-05-05 17:39 | -10.31054 | -77.95543 | 13785 ft | 327 kts | 153° |
| 2026-05-05 17:39 | -10.33091 | -77.94548 | 13528 ft | 326 kts | 153° |
| 2026-05-05 17:39 | -10.35156 | -77.93539 | 13270 ft | 324 kts | 153° |
| 2026-05-05 17:40 | -10.37161 | -77.92560 | 13117 ft | 321 kts | 153° |
| 2026-05-05 17:40 | -10.39182 | -77.91573 | 12881 ft | 320 kts | 153° |
| 2026-05-05 17:40 | -10.41196 | -77.90588 | 12600 ft | 320 kts | 153° |
| 2026-05-05 17:40 | -10.43197 | -77.89610 | 12322 ft | 318 kts | 153° |
| 2026-05-05 17:41 | -10.45210 | -77.88626 | 12146 ft | 317 kts | 153° |
| 2026-05-05 17:41 | -10.47178 | -77.87665 | 12079 ft | 313 kts | 153° |
| 2026-05-05 17:41 | -10.49142 | -77.86704 | 12072 ft | 309 kts | 153° |
| 2026-05-05 17:41 | -10.51090 | -77.85753 | 11950 ft | 310 kts | 153° |
| 2026-05-05 17:42 | -10.53027 | -77.84811 | 11950 ft | 310 kts | 153° |
| 2026-05-05 17:42 | -10.54996 | -77.83853 | 11987 ft | 311 kts | 153° |
| 2026-05-05 17:42 | -10.56947 | -77.82901 | 11982 ft | 311 kts | 153° |
| 2026-05-05 17:42 | -10.58905 | -77.81944 | 11924 ft | 308 kts | 153° |
| 2026-05-05 17:43 | -10.60810 | -77.81007 | 11714 ft | 305 kts | 153° |
| 2026-05-05 17:43 | -10.62736 | -77.80057 | 11434 ft | 304 kts | 153° |
| 2026-05-05 17:43 | -10.64648 | -77.79117 | 11107 ft | 302 kts | 153° |
| 2026-05-05 17:43 | -10.66512 | -77.78199 | 10833 ft | 298 kts | 153° |
| 2026-05-05 17:44 | -10.68364 | -77.77287 | 10606 ft | 288 kts | 154° |
| 2026-05-05 17:44 | -10.70149 | -77.76409 | 10322 ft | 281 kts | 154° |
| 2026-05-05 17:44 | -10.71879 | -77.75558 | 9960 ft | 275 kts | 154° |
| 2026-05-05 17:44 | -10.73595 | -77.74714 | 9664 ft | 270 kts | 154° |
| 2026-05-05 17:45 | -10.75295 | -77.73878 | 9365 ft | 269 kts | 154° |
| 2026-05-05 17:45 | -10.76989 | -77.73048 | 9075 ft | 274 kts | 154° |
| 2026-05-05 17:45 | -10.78728 | -77.72194 | 8876 ft | 276 kts | 154° |
| 2026-05-05 17:45 | -10.80456 | -77.71347 | 8635 ft | 276 kts | 154° |
| 2026-05-05 17:46 | -10.82183 | -77.70500 | 8325 ft | 276 kts | 154° |
| 2026-05-05 17:46 | -10.83933 | -77.69643 | 8100 ft | 272 kts | 154° |
| 2026-05-05 17:46 | -10.85609 | -77.68821 | 8079 ft | 264 kts | 154° |
| 2026-05-05 17:46 | -10.87247 | -77.68018 | 8069 ft | 259 kts | 154° |
| 2026-05-05 17:47 | -10.88872 | -77.67221 | 8087 ft | 254 kts | 154° |
| 2026-05-05 17:47 | -10.90453 | -77.66446 | 8038 ft | 252 kts | 155° |
| 2026-05-05 17:47 | -10.92086 | -77.65667 | 8085 ft | 261 kts | 155° |
| 2026-05-05 17:47 | -10.93770 | -77.64858 | 8049 ft | 269 kts | 155° |
| 2026-05-05 17:48 | -10.95460 | -77.64040 | 8083 ft | 274 kts | 155° |
| 2026-05-05 17:48 | -10.97216 | -77.63187 | 8053 ft | 280 kts | 155° |
| 2026-05-05 17:48 | -10.98988 | -77.62324 | 8013 ft | 283 kts | 155° |
| 2026-05-05 17:48 | -11.00782 | -77.61446 | 8085 ft | 279 kts | 154° |
| 2026-05-05 17:49 | -11.02506 | -77.60581 | 8108 ft | 273 kts | 153° |
| 2026-05-05 17:49 | -11.04199 | -77.59735 | 8078 ft | 269 kts | 154° |
| 2026-05-05 17:49 | -11.05882 | -77.58898 | 8057 ft | 264 kts | 154° |
| 2026-05-05 17:49 | -11.07525 | -77.58083 | 8030 ft | 260 kts | 154° |
| 2026-05-05 17:50 | -11.09136 | -77.57285 | 8024 ft | 256 kts | 154° |
| 2026-05-05 17:50 | -11.10738 | -77.56493 | 8056 ft | 254 kts | 154° |
| 2026-05-05 17:50 | -11.12312 | -77.55715 | 8064 ft | 252 kts | 155° |
| 2026-05-05 17:50 | -11.13907 | -77.54928 | 8077 ft | 250 kts | 154° |
| 2026-05-05 17:51 | -11.15460 | -77.54163 | 8083 ft | 249 kts | 155° |
| 2026-05-05 17:51 | -11.17047 | -77.53381 | 8073 ft | 250 kts | 155° |
| 2026-05-05 17:51 | -11.18607 | -77.52614 | 8080 ft | 250 kts | 154° |
| 2026-05-05 17:51 | -11.20172 | -77.51843 | 8078 ft | 249 kts | 154° |
| 2026-05-05 17:52 | -11.21744 | -77.51070 | 8044 ft | 248 kts | 154° |
| 2026-05-05 17:52 | -11.23292 | -77.50307 | 8057 ft | 248 kts | 154° |
| 2026-05-05 17:52 | -11.24845 | -77.49545 | 8026 ft | 247 kts | 155° |
| 2026-05-05 17:52 | -11.26419 | -77.48792 | 8014 ft | 245 kts | 155° |
| 2026-05-05 17:53 | -11.27949 | -77.48075 | 8060 ft | 244 kts | 155° |
| 2026-05-05 17:53 | -11.29516 | -77.47340 | 8075 ft | 246 kts | 155° |
| 2026-05-05 17:53 | -11.31082 | -77.46606 | 8034 ft | 245 kts | 156° |
| 2026-05-05 17:53 | -11.32624 | -77.45881 | 8092 ft | 244 kts | 156° |
| 2026-05-05 17:54 | -11.34177 | -77.45151 | 8113 ft | 246 kts | 155° |
| 2026-05-05 17:54 | -11.35740 | -77.44416 | 8042 ft | 247 kts | 156° |
| 2026-05-05 17:54 | -11.37301 | -77.43681 | 8030 ft | 246 kts | 156° |
| 2026-05-05 17:54 | -11.38855 | -77.42950 | 8049 ft | 246 kts | 156° |
| 2026-05-05 17:55 | -11.40445 | -77.42201 | 7955 ft | 252 kts | 156° |
| 2026-05-05 17:55 | -11.42057 | -77.41442 | 7686 ft | 255 kts | 156° |
| 2026-05-05 17:55 | -11.43670 | -77.40681 | 7481 ft | 254 kts | 156° |
| 2026-05-05 17:55 | -11.45278 | -77.39925 | 7259 ft | 253 kts | 155° |
| 2026-05-05 17:56 | -11.46883 | -77.39168 | 7105 ft | 252 kts | 155° |
| 2026-05-05 17:56 | -11.48479 | -77.38416 | 6934 ft | 253 kts | 155° |
| 2026-05-05 17:56 | -11.50065 | -77.37669 | 6641 ft | 253 kts | 155° |
| 2026-05-05 17:56 | -11.51676 | -77.36906 | 6162 ft | 258 kts | 155° |
| 2026-05-05 17:57 | -11.53310 | -77.36135 | 5603 ft | 256 kts | 156° |
| 2026-05-05 17:57 | -11.54931 | -77.35376 | 5073 ft | 251 kts | 156° |
| 2026-05-05 17:57 | -11.56490 | -77.34646 | 4527 ft | 248 kts | 155° |
| 2026-05-05 17:57 | -11.58067 | -77.33906 | 4024 ft | 246 kts | 155° |
| 2026-05-05 17:58 | -11.59604 | -77.33184 | 3549 ft | 244 kts | 155° |
| 2026-05-05 17:58 | -11.61153 | -77.32456 | 3021 ft | 241 kts | 154° |
| 2026-05-05 17:58 | -11.62661 | -77.31747 | 2498 ft | 238 kts | 155° |
| 2026-05-05 17:58 | -11.64128 | -77.31055 | 2237 ft | 223 kts | 155° |
| 2026-05-05 17:59 | -11.65473 | -77.30421 | 2149 ft | 200 kts | 155° |
| 2026-05-05 17:59 | -11.66662 | -77.29859 | 2110 ft | 177 kts | 155° |
| 2026-05-05 17:59 | -11.67800 | -77.29325 | 2062 ft | 182 kts | 155° |
| 2026-05-05 17:59 | -11.68962 | -77.28769 | 1908 ft | 185 kts | 155° |
| 2026-05-05 18:00 | -11.70139 | -77.28207 | 1758 ft | 187 kts | 155° |
| 2026-05-05 18:00 | -11.71328 | -77.27640 | 1618 ft | 188 kts | 155° |
| 2026-05-05 18:00 | -11.72514 | -77.27078 | 1545 ft | 185 kts | 155° |
| 2026-05-05 18:00 | -11.73680 | -77.26524 | 1515 ft | 180 kts | 155° |
| 2026-05-05 18:01 | -11.74821 | -77.25990 | 1502 ft | 183 kts | 156° |
| 2026-05-05 18:01 | -11.76001 | -77.25442 | 1499 ft | 185 kts | 155° |
| 2026-05-05 18:01 | -11.77185 | -77.24888 | 1497 ft | 188 kts | 155° |
| 2026-05-05 18:01 | -11.78384 | -77.24324 | 1501 ft | 189 kts | 156° |
| 2026-05-05 18:02 | -11.79584 | -77.23761 | 1505 ft | 192 kts | 156° |
| 2026-05-05 18:02 | -11.80766 | -77.23099 | 1498 ft | 194 kts | 147° |
| 2026-05-05 18:02 | -11.81882 | -77.22315 | 1504 ft | 194 kts | 146° |
| 2026-05-05 18:02 | -11.82990 | -77.21524 | 1502 ft | 195 kts | 146° |
| 2026-05-05 18:03 | -11.84105 | -77.20727 | 1511 ft | 196 kts | 146° |
| 2026-05-05 18:03 | -11.85234 | -77.19922 | 1514 ft | 198 kts | 146° |
| 2026-05-05 18:03 | -11.86391 | -77.19164 | 1506 ft | 192 kts | 152° |
| 2026-05-05 18:03 | -11.87550 | -77.18574 | 1423 ft | 174 kts | 155° |
| 2026-05-05 18:04 | -11.88499 | -77.18145 | 1223 ft | 158 kts | 159° |
| 2026-05-05 18:04 | -11.89626 | -77.17715 | 1180 ft | 186 kts | 159° |
| 2026-05-05 18:04 | -11.90842 | -77.17162 | 1344 ft | 188 kts | 155° |
| 2026-05-05 18:04 | -11.92008 | -77.16565 | 1302 ft | 188 kts | 153° |
| 2026-05-05 18:05 | -11.93150 | -77.15888 | 1148 ft | 188 kts | 150° |
| 2026-05-05 18:05 | -11.94323 | -77.15307 | 937 ft | 185 kts | 158° |
| 2026-05-05 18:05 | -11.95493 | -77.14753 | 758 ft | 183 kts | 155° |
| 2026-05-05 18:05 | -11.96618 | -77.14201 | 598 ft | 171 kts | 155° |
| 2026-05-05 18:06 | -11.97622 | -77.13683 | 477 ft | 157 kts | 156° |
| 2026-05-05 18:06 | -11.98274 | -77.13363 | 436 ft | 156 kts | 154° |
| 2026-05-05 18:06 | -11.99592 | -77.12708 | 287 ft | 158 kts | 155° |
| 2026-05-05 18:06 | -12.00580 | -77.12225 | 206 ft | 157 kts | 157° |
| 2026-05-05 18:07 | -12.01565 | -77.11742 | 143 ft | 150 kts | 155° |
| 2026-05-05 18:07 | -12.02265 | -77.11404 | 134 ft | 61 kts | 154° |
| 2026-05-05 18:07 | -12.02418 | -77.11331 | 134 ft | 20 kts | 153° |
| 2026-05-05 18:07 | -12.02485 | -77.11253 | 134 ft | 9 kts | 92° |
| 2026-05-05 18:08 | -12.02482 | -77.11231 | 134 ft | 0 kts | 72° |
| 2026-05-05 18:08 | -12.02473 | -77.11205 | 134 ft | 7 kts | 67° |
| 2026-05-05 18:08 | -12.02447 | -77.11149 | 134 ft | 9 kts | 63° |
| 2026-05-05 18:09 | -12.02395 | -77.11107 | 134 ft | 10 kts | 8° |
| 2026-05-05 18:09 | -12.02321 | -77.11098 | 134 ft | 10 kts | 6° |
| 2026-05-05 18:09 | -12.02246 | -77.11096 | 134 ft | 11 kts | 352° |
| 2026-05-05 18:09 | -12.02174 | -77.11112 | 134 ft | 10 kts | 339° |
| 2026-05-05 18:10 | -12.02112 | -77.11141 | 134 ft | 10 kts | 334° |
| 2026-05-05 18:10 | -12.02045 | -77.11176 | 134 ft | 10 kts | 333° |
| 2026-05-05 18:10 | -12.01985 | -77.11207 | 134 ft | 9 kts | 330° |
| 2026-05-05 18:10 | -12.01925 | -77.11247 | 134 ft | 10 kts | 326° |
| 2026-05-05 18:11 | -12.01881 | -77.11284 | 134 ft | 7 kts | 320° |
| 2026-05-05 18:11 | -12.01846 | -77.11313 | 134 ft | 0 kts | 321° |